createdAt,value
2022-08-26T03:58:32.054Z,100157.66
2022-08-26T04:01:35.119Z,100157.66
2022-08-26T04:04:37.838Z,100155.66
2022-08-26T04:07:41.018Z,100155.25
2022-08-26T04:10:43.637Z,100155.25
2022-08-26T04:13:46.741Z,100155.44
2022-08-26T04:16:51.145Z,100155.72
2022-08-26T04:19:54.014Z,100150.56
2022-08-26T04:22:56.478Z,100159.53
2022-08-26T04:26:01.250Z,100162.91
2022-08-26T04:29:09.969Z,100157.84
2022-08-26T04:32:12.693Z,100164.97
2022-08-26T04:35:15.279Z,100157.91
2022-08-26T04:38:19.835Z,100155.84
2022-08-26T04:41:23.702Z,100162.06
2022-08-26T04:44:28.806Z,100162.22
2022-08-26T04:47:32.459Z,100158.38
2022-08-26T04:50:35.067Z,100159.72
2022-08-26T04:53:38.088Z,100158.63
2022-08-26T04:56:43.120Z,100159.09
2022-08-26T04:59:45.598Z,100157.75
2022-08-26T05:02:48.254Z,100158.00
2022-08-26T05:05:54.272Z,100157.94
2022-08-26T05:08:56.458Z,100161.66
2022-08-26T05:12:00.805Z,100154.44
2022-08-26T05:15:03.025Z,100154.41
2022-08-26T05:18:07.293Z,100154.09
2022-08-26T05:21:17.405Z,100160.53
2022-08-26T05:24:19.890Z,100159.44
2022-08-26T05:27:22.063Z,100160.31
2022-08-26T05:30:24.388Z,100161.25
2022-08-26T05:33:26.590Z,100159.31
2022-08-26T05:36:30.709Z,100165.25
2022-08-26T05:39:33.505Z,100165.78
2022-08-26T05:42:36.724Z,100167.41
2022-08-26T05:45:46.330Z,100164.44
2022-08-26T05:48:48.928Z,100166.47
2022-08-26T05:51:52.913Z,100169.37
2022-08-26T05:54:55.363Z,100156.19
2022-08-26T05:57:57.420Z,100163.66
2022-08-26T06:01:04.361Z,100171.97
2022-08-26T06:04:07.861Z,100182.25
2022-08-26T06:07:11.473Z,100175.69
2022-08-26T06:10:31.532Z,100173.44
2022-08-26T06:13:35.176Z,100184.84
2022-08-26T06:16:40.957Z,100177.09
2022-08-26T06:19:43.230Z,100182.59
2022-08-26T06:23:04.061Z,100187.34
2022-08-26T06:26:06.593Z,100179.50
2022-08-26T06:29:15.416Z,100181.97
2022-08-26T06:32:26.372Z,100181.22
2022-08-26T06:35:28.944Z,100184.41
2022-08-26T06:38:31.182Z,100186.37
2022-08-26T06:41:34.422Z,100178.59
2022-08-26T06:44:36.568Z,100180.94
2022-08-26T06:47:38.955Z,100179.00
2022-08-26T06:50:42.265Z,100185.31
2022-08-26T06:53:46.963Z,100179.84
2022-08-26T06:56:50.342Z,100182.97
2022-08-26T06:59:53.199Z,100175.94
2022-08-26T07:02:55.534Z,100186.13
2022-08-26T07:06:02.555Z,100171.22
2022-08-26T07:09:07.649Z,100176.72
2022-08-26T07:12:12.567Z,100172.87
2022-08-26T07:15:15.845Z,100175.22
2022-08-26T07:18:18.550Z,100180.75
2022-08-26T07:21:24.882Z,100177.19
2022-08-26T07:24:29.134Z,100184.66
2022-08-26T07:27:31.348Z,100178.38
2022-08-26T07:30:39.048Z,100179.16
2022-08-26T07:33:43.586Z,100173.66
2022-08-26T07:36:46.064Z,100168.59
2022-08-26T07:39:48.255Z,100170.97
2022-08-26T07:42:51.667Z,100173.31
2022-08-26T07:45:54.970Z,100173.72
2022-08-26T07:48:58.357Z,100165.06
2022-08-26T07:52:00.465Z,100170.59
2022-08-26T07:55:04.394Z,100178.00
2022-08-26T07:58:06.739Z,100170.19
2022-08-26T08:01:09.884Z,100174.09
2022-08-26T08:04:14.641Z,100174.09
2022-08-26T08:07:16.806Z,100168.63
2022-08-26T08:10:25.099Z,100169.78
2022-08-26T08:13:29.177Z,100163.91
2022-08-26T08:16:32.322Z,100163.53
2022-08-26T08:19:36.735Z,100158.81
2022-08-26T08:22:39.685Z,100158.03
2022-08-26T08:25:42.973Z,100160.00
2022-08-26T08:28:47.905Z,100154.47
2022-08-26T08:31:56.802Z,100150.16
2022-08-26T08:35:02.552Z,100149.75
2022-08-26T08:38:13.030Z,100146.97
2022-08-26T08:41:49.781Z,100139.88
2022-08-26T08:44:57.577Z,100148.13
2022-08-26T08:48:04.248Z,100136.72
2022-08-26T08:51:35.586Z,100132.00
2022-08-26T08:54:38.128Z,100138.28
2022-08-26T08:58:13.542Z,100132.34
2022-08-26T09:01:30.035Z,100134.75
2022-08-26T09:04:51.546Z,100132.75
2022-08-26T09:08:07.126Z,100132.00
2022-08-26T09:11:15.028Z,100122.91
2022-08-26T09:14:17.647Z,100126.03
2022-08-26T09:17:38.898Z,100124.84
2022-08-26T09:21:03.398Z,100121.22
2022-08-26T09:24:07.691Z,100114.53
2022-08-26T09:27:44.861Z,100113.31
2022-08-26T09:31:11.496Z,100113.31
2022-08-26T09:34:20.857Z,100106.16
2022-08-26T09:37:39.227Z,100106.97
2022-08-26T09:40:58.930Z,100102.91
2022-08-26T09:44:04.025Z,100101.72
2022-08-26T09:47:07.645Z,100106.88
2022-08-26T09:50:28.990Z,100101.72
2022-08-26T09:53:36.498Z,100100.94
2022-08-26T09:56:39.307Z,100101.25
2022-08-26T09:59:42.742Z,100096.81
2022-08-26T10:02:47.467Z,100093.72
2022-08-26T10:06:06.661Z,100101.53
2022-08-26T10:09:13.728Z,100090.47
2022-08-26T10:12:21.349Z,100080.25
2022-08-26T10:15:26.189Z,100080.22
2022-08-26T10:18:34.365Z,100085.28
2022-08-26T10:21:45.239Z,100083.19
2022-08-26T10:24:55.110Z,100089.91
2022-08-26T10:28:17.982Z,100084.03
2022-08-26T10:31:40.338Z,100074.22
2022-08-26T10:34:43.766Z,100073.84
2022-08-26T10:37:51.107Z,100071.84
2022-08-26T10:41:02.704Z,100067.44
2022-08-26T10:44:15.186Z,100067.28
2022-08-26T10:47:28.222Z,100068.84
2022-08-26T10:50:43.220Z,100064.41
2022-08-26T10:54:11.887Z,100054.09
2022-08-26T10:57:17.098Z,100060.87
2022-08-26T11:01:02.353Z,100052.25
2022-08-26T11:04:38.950Z,100049.88
2022-08-26T11:07:46.200Z,100047.03
2022-08-26T11:10:51.623Z,100045.00
2022-08-26T11:13:56.674Z,100042.25
2022-08-26T11:17:00.032Z,100040.25
2022-08-26T11:20:08.997Z,100039.34
2022-08-26T11:23:37.442Z,100036.97
2022-08-26T11:26:56.004Z,100034.13
2022-08-26T11:30:06.846Z,100025.50
2022-08-26T11:33:48.009Z,100027.78
2022-08-26T11:36:57.518Z,100022.12
2022-08-26T11:40:01.823Z,100016.66
2022-08-26T11:43:08.439Z,100013.91
2022-08-26T11:46:11.679Z,100004.31
2022-08-26T11:49:14.685Z,100004.91
2022-08-26T11:52:22.395Z,100010.19
2022-08-26T11:55:24.725Z,99999.97
2022-08-26T11:58:28.031Z,100002.44
2022-08-26T12:01:35.618Z,99998.50
2022-08-26T12:04:42.899Z,99991.31
2022-08-26T12:07:49.592Z,99994.91
2022-08-26T12:11:09.706Z,99985.81
2022-08-26T12:14:24.720Z,99990.03
2022-08-26T12:17:27.996Z,99982.62
2022-08-26T12:20:47.993Z,99975.53
2022-08-26T12:23:54.584Z,99972.63
2022-08-26T12:27:15.459Z,99973.75
2022-08-26T12:30:26.205Z,99969.13
2022-08-26T12:33:29.339Z,99956.78
2022-08-26T12:36:53.919Z,99958.75
2022-08-26T12:40:16.007Z,99959.22
2022-08-26T12:43:38.725Z,99954.41
2022-08-26T12:46:40.924Z,99949.25
2022-08-26T12:49:44.191Z,99940.25
2022-08-26T12:53:05.504Z,99943.03
2022-08-26T12:56:27.723Z,99941.34
2022-08-26T12:59:30.143Z,99939.06
2022-08-26T13:02:37.313Z,99934.56
2022-08-26T13:05:39.678Z,99936.59
2022-08-26T13:08:43.146Z,99922.41
2022-08-26T13:11:45.350Z,99917.72
2022-08-26T13:14:47.680Z,99921.12
2022-08-26T13:17:49.761Z,99913.03
2022-08-26T13:20:52.586Z,99909.75
2022-08-26T13:23:54.943Z,99903.47
2022-08-26T13:26:57.343Z,99899.91
2022-08-26T13:30:00.229Z,99890.19
2022-08-26T13:33:02.864Z,99897.88
2022-08-26T13:36:06.890Z,99897.94
2022-08-26T13:39:11.286Z,99888.38
2022-08-26T13:42:13.405Z,99893.69
2022-08-26T13:45:15.784Z,99882.97
2022-08-26T13:48:21.542Z,99882.19
2022-08-26T13:51:26.674Z,99881.78
2022-08-26T13:54:28.734Z,99872.94
2022-08-26T13:57:31.071Z,99871.22
2022-08-26T14:00:33.831Z,99877.69
2022-08-26T14:03:36.581Z,99872.84
2022-08-26T14:06:38.740Z,99864.09
2022-08-26T14:09:41.090Z,99867.97
2022-08-26T14:12:43.768Z,99865.00
2022-08-26T14:15:46.452Z,99868.69
2022-08-26T14:18:50.886Z,99864.72
2022-08-26T14:21:53.422Z,99864.00
2022-08-26T14:24:56.434Z,99871.72
2022-08-26T14:27:59.277Z,99872.63
2022-08-26T14:31:02.474Z,99872.78
2022-08-26T14:34:07.885Z,99881.50
2022-08-26T14:37:13.536Z,99875.09
2022-08-26T14:40:19.415Z,99883.91
